sensor_id;sensor_type;location;lat;lon;timestamp;pressure;altitude;pressure_sealevel;temperature;humidity
35778;BME280;21899;42.662;23.316;2022-07-01T00:02:22;94428.41;;;22.10;61.46
35778;BME280;21899;42.662;23.316;2022-07-01T00:04:48;94431.25;;;22.15;61.37
35778;BME280;21899;42.662;23.316;2022-07-01T00:07:13;94423.69;;;22.10;61.46
35778;BME280;21899;42.662;23.316;2022-07-01T00:09:39;94421.72;;;22.11;61.56
35778;BME280;21899;42.662;23.316;2022-07-01T00:12:05;94420.34;;;22.15;61.37
35778;BME280;21899;42.662;23.316;2022-07-01T00:14:31;94419.72;;;22.20;61.23
35778;BME280;21899;42.662;23.316;2022-07-01T00:16:56;94430.78;;;22.26;61.02
35778;BME280;21899;42.662;23.316;2022-07-01T00:19:21;94438.22;;;22.25;60.93
35778;BME280;21899;42.662;23.316;2022-07-01T00:21:47;94438.66;;;22.24;61.18
35778;BME280;21899;42.662;23.316;2022-07-01T00:24:12;94437.75;;;22.27;60.93
35778;BME280;21899;42.662;23.316;2022-07-01T00:26:37;94440.94;;;22.25;61.08
35778;BME280;21899;42.662;23.316;2022-07-01T00:29:03;94441.25;;;22.27;61.46
35778;BME280;21899;42.662;23.316;2022-07-01T00:31:28;94442.66;;;22.05;61.45
35778;BME280;21899;42.662;23.316;2022-07-01T00:33:53;94443.22;;;22.09;61.42
35778;BME280;21899;42.662;23.316;2022-07-01T00:36:18;94448.38;;;22.16;61.37
35778;BME280;21899;42.662;23.316;2022-07-01T00:38:44;94430.94;;;22.13;61.78
35778;BME280;21899;42.662;23.316;2022-07-01T00:41:09;94442.03;;;22.10;62.11
35778;BME280;21899;42.662;23.316;2022-07-01T00:43:35;94441.13;;;22.13;62.41
35778;BME280;21899;42.662;23.316;2022-07-01T00:46:01;94449.16;;;21.89;62.83
35778;BME280;21899;42.662;23.316;2022-07-01T00:48:27;94448.53;;;21.94;62.47
35778;BME280;21899;42.662;23.316;2022-07-01T00:50:52;94441.88;;;22.04;62.37
35778;BME280;21899;42.662;23.316;2022-07-01T00:53:17;94444.75;;;21.91;62.86
35778;BME280;21899;42.662;23.316;2022-07-01T00:55:43;94440.22;;;21.98;63.37
35778;BME280;21899;42.662;23.316;2022-07-01T00:58:08;94444.59;;;21.95;63.33
35778;BME280;21899;42.662;23.316;2022-07-01T01:00:34;94444.56;;;21.59;64.69
35778;BME280;21899;42.662;23.316;2022-07-01T01:03:00;94441.41;;;21.69;64.66
35778;BME280;21899;42.662;23.316;2022-07-01T01:05:25;94447.00;;;21.66;64.55
35778;BME280;21899;42.662;23.316;2022-07-01T01:07:51;94444.25;;;21.48;65.14
35778;BME280;21899;42.662;23.316;2022-07-01T01:10:16;94445.41;;;21.29;65.63
35778;BME280;21899;42.662;23.316;2022-07-01T01:12:42;94441.94;;;21.19;66.55
35778;BME280;21899;42.662;23.316;2022-07-01T01:15:07;94454.44;;;21.08;66.88
35778;BME280;21899;42.662;23.316;2022-07-01T01:17:33;94448.09;;;21.02;67.83
35778;BME280;21899;42.662;23.316;2022-07-01T01:19:58;94446.19;;;21.20;67.40
35778;BME280;21899;42.662;23.316;2022-07-01T01:22:23;94443.47;;;21.29;67.76
35778;BME280;21899;42.662;23.316;2022-07-01T01:24:49;94451.50;;;21.33;68.37
35778;BME280;21899;42.662;23.316;2022-07-01T01:27:14;94447.88;;;21.36;68.57
35778;BME280;21899;42.662;23.316;2022-07-01T01:29:39;94439.25;;;21.37;68.74
35778;BME280;21899;42.662;23.316;2022-07-01T01:32:05;94440.00;;;21.38;68.59
35778;BME280;21899;42.662;23.316;2022-07-01T01:34:31;94442.41;;;21.36;68.91
35778;BME280;21899;42.662;23.316;2022-07-01T01:36:57;94451.94;;;21.31;69.22
35778;BME280;21899;42.662;23.316;2022-07-01T01:39:22;94448.91;;;21.29;69.32
35778;BME280;21899;42.662;23.316;2022-07-01T01:41:47;94447.69;;;21.21;69.60
35778;BME280;21899;42.662;23.316;2022-07-01T01:44:13;94445.41;;;21.20;69.48
35778;BME280;21899;42.662;23.316;2022-07-01T01:46:38;94455.53;;;21.19;69.60
35778;BME280;21899;42.662;23.316;2022-07-01T01:49:06;94455.63;;;20.98;70.30
35778;BME280;21899;42.662;23.316;2022-07-01T01:51:32;94451.25;;;21.00;70.31
35778;BME280;21899;42.662;23.316;2022-07-01T01:53:58;94464.72;;;21.04;70.47
35778;BME280;21899;42.662;23.316;2022-07-01T01:56:24;94469.41;;;21.03;70.50
35778;BME280;21899;42.662;23.316;2022-07-01T01:58:49;94461.34;;;20.91;72.06
35778;BME280;21899;42.662;23.316;2022-07-01T02:01:15;94459.72;;;20.71;73.06
35778;BME280;21899;42.662;23.316;2022-07-01T02:03:41;94460.00;;;20.64;73.78
35778;BME280;21899;42.662;23.316;2022-07-01T02:06:07;94456.94;;;20.53;74.42
35778;BME280;21899;42.662;23.316;2022-07-01T02:08:34;94458.16;;;20.61;74.17
35778;BME280;21899;42.662;23.316;2022-07-01T02:10:59;94456.81;;;20.66;74.19
35778;BME280;21899;42.662;23.316;2022-07-01T02:13:25;94454.28;;;20.71;74.38
35778;BME280;21899;42.662;23.316;2022-07-01T02:15:50;94461.88;;;20.77;74.32
35778;BME280;21899;42.662;23.316;2022-07-01T02:18:16;94471.50;;;20.68;74.64
35778;BME280;21899;42.662;23.316;2022-07-01T02:20:42;94473.56;;;20.55;75.30
35778;BME280;21899;42.662;23.316;2022-07-01T02:23:08;94474.47;;;20.52;75.43
35778;BME280;21899;42.662;23.316;2022-07-01T02:25:33;94472.19;;;20.51;75.62
35778;BME280;21899;42.662;23.316;2022-07-01T02:27:58;94472.31;;;20.47;76.25
35778;BME280;21899;42.662;23.316;2022-07-01T02:30:24;94474.19;;;20.38;76.66
35778;BME280;21899;42.662;23.316;2022-07-01T02:32:49;94485.22;;;20.34;76.94
35778;BME280;21899;42.662;23.316;2022-07-01T02:35:14;94484.91;;;20.32;77.14
35778;BME280;21899;42.662;23.316;2022-07-01T02:37:40;94483.44;;;20.19;77.90
35778;BME280;21899;42.662;23.316;2022-07-01T02:40:05;94489.53;;;20.10;78.87
35778;BME280;21899;42.662;23.316;2022-07-01T02:42:31;94485.41;;;20.18;78.50
35778;BME280;21899;42.662;23.316;2022-07-01T02:45:00;94485.72;;;20.20;78.64
35778;BME280;21899;42.662;23.316;2022-07-01T02:47:25;94497.53;;;20.26;78.39
35778;BME280;21899;42.662;23.316;2022-07-01T02:49:55;94499.13;;;20.15;79.18
35778;BME280;21899;42.662;23.316;2022-07-01T02:52:20;94504.88;;;20.17;79.73
35778;BME280;21899;42.662;23.316;2022-07-01T02:54:46;94502.34;;;20.22;78.56
35778;BME280;21899;42.662;23.316;2022-07-01T02:57:11;94498.75;;;20.25;78.68
35778;BME280;21899;42.662;23.316;2022-07-01T02:59:37;94503.25;;;20.19;78.57
35778;BME280;21899;42.662;23.316;2022-07-01T03:02:02;94501.78;;;20.27;78.26
35778;BME280;21899;42.662;23.316;2022-07-01T03:04:28;94507.22;;;20.27;77.98
35778;BME280;21899;42.662;23.316;2022-07-01T03:06:53;94513.28;;;20.31;77.63
35778;BME280;21899;42.662;23.316;2022-07-01T03:09:18;94507.59;;;20.38;77.26
35778;BME280;21899;42.662;23.316;2022-07-01T03:11:43;94513.34;;;20.40;77.39
35778;BME280;21899;42.662;23.316;2022-07-01T03:14:09;94520.38;;;20.29;78.04
35778;BME280;21899;42.662;23.316;2022-07-01T03:16:34;94523.28;;;20.34;77.39
35778;BME280;21899;42.662;23.316;2022-07-01T03:18:59;94526.88;;;20.31;77.25
35778;BME280;21899;42.662;23.316;2022-07-01T03:21:26;94529.28;;;20.51;77.26
35778;BME280;21899;42.662;23.316;2022-07-01T03:23:52;94525.25;;;20.64;76.87
35778;BME280;21899;42.662;23.316;2022-07-01T03:26:17;94526.63;;;20.91;75.42
35778;BME280;21899;42.662;23.316;2022-07-01T03:28:42;94521.00;;;21.16;74.51
35778;BME280;21899;42.662;23.316;2022-07-01T03:31:07;94521.72;;;21.47;74.02
35778;BME280;21899;42.662;23.316;2022-07-01T03:33:33;94522.41;;;21.78;72.49
35778;BME280;21899;42.662;23.316;2022-07-01T03:35:58;94523.03;;;22.09;70.14
35778;BME280;21899;42.662;23.316;2022-07-01T03:38:23;94527.59;;;22.39;68.31
35778;BME280;21899;42.662;23.316;2022-07-01T03:40:49;94522.41;;;22.68;65.72
35778;BME280;21899;42.662;23.316;2022-07-01T03:43:14;94519.31;;;22.93;65.05
35778;BME280;21899;42.662;23.316;2022-07-01T03:45:40;94523.16;;;23.19;63.06
35778;BME280;21899;42.662;23.316;2022-07-01T03:48:05;94524.28;;;23.46;63.22
35778;BME280;21899;42.662;23.316;2022-07-01T03:50:30;94530.56;;;23.61;62.05
35778;BME280;21899;42.662;23.316;2022-07-01T03:52:56;94519.81;;;23.57;61.43
35778;BME280;21899;42.662;23.316;2022-07-01T03:55:40;94528.13;;;23.63;62.17
35778;BME280;21899;42.662;23.316;2022-07-01T03:58:06;94523.47;;;23.54;61.24
35778;BME280;21899;42.662;23.316;2022-07-01T04:00:35;94530.09;;;23.39;61.70
35778;BME280;21899;42.662;23.316;2022-07-01T04:03:01;94522.38;;;23.19;62.76
35778;BME280;21899;42.662;23.316;2022-07-01T04:05:26;94528.66;;;23.10;62.92
35778;BME280;21899;42.662;23.316;2022-07-01T04:07:51;94526.00;;;22.83;63.93
35778;BME280;21899;42.662;23.316;2022-07-01T04:10:17;94528.91;;;22.80;64.22
35778;BME280;21899;42.662;23.316;2022-07-01T04:12:42;94529.38;;;22.69;64.97
35778;BME280;21899;42.662;23.316;2022-07-01T04:15:08;94536.66;;;22.45;65.91
35778;BME280;21899;42.662;23.316;2022-07-01T04:17:33;94540.00;;;22.22;66.89
35778;BME280;21899;42.662;23.316;2022-07-01T04:19:59;94537.28;;;22.22;66.71
35778;BME280;21899;42.662;23.316;2022-07-01T04:22:24;94549.25;;;22.16;67.95
35778;BME280;21899;42.662;23.316;2022-07-01T04:24:59;94541.03;;;21.79;69.46
35778;BME280;21899;42.662;23.316;2022-07-01T04:27:25;94547.72;;;21.87;69.36
35778;BME280;21899;42.662;23.316;2022-07-01T04:29:51;94548.47;;;21.88;69.54
35778;BME280;21899;42.662;23.316;2022-07-01T04:32:16;94542.44;;;21.93;69.83
35778;BME280;21899;42.662;23.316;2022-07-01T04:34:41;94554.06;;;21.84;69.75
35778;BME280;21899;42.662;23.316;2022-07-01T04:37:07;94543.16;;;21.84;70.21
35778;BME280;21899;42.662;23.316;2022-07-01T04:39:32;94549.53;;;22.00;70.15
35778;BME280;21899;42.662;23.316;2022-07-01T04:41:57;94547.56;;;22.18;69.82
35778;BME280;21899;42.662;23.316;2022-07-01T04:44:33;94546.66;;;22.30;68.25
35778;BME280;21899;42.662;23.316;2022-07-01T04:46:59;94549.38;;;22.48;67.18
35778;BME280;21899;42.662;23.316;2022-07-01T04:49:25;94548.31;;;22.73;64.82
35778;BME280;21899;42.662;23.316;2022-07-01T04:51:50;94548.41;;;23.05;64.45
35778;BME280;21899;42.662;23.316;2022-07-01T04:54:16;94544.25;;;23.28;63.83
35778;BME280;21899;42.662;23.316;2022-07-01T04:56:41;94541.84;;;23.54;63.00
35778;BME280;21899;42.662;23.316;2022-07-01T04:59:06;94542.94;;;23.80;60.85
35778;BME280;21899;42.662;23.316;2022-07-01T05:01:32;94535.59;;;23.86;60.38
35778;BME280;21899;42.662;23.316;2022-07-01T05:03:57;94540.53;;;23.96;59.46
35778;BME280;21899;42.662;23.316;2022-07-01T05:06:23;94534.97;;;24.14;59.86
35778;BME280;21899;42.662;23.316;2022-07-01T05:08:48;94538.03;;;24.31;58.78
35778;BME280;21899;42.662;23.316;2022-07-01T05:11:14;94545.44;;;24.54;57.87
35778;BME280;21899;42.662;23.316;2022-07-01T05:13:39;94549.22;;;24.71;57.26
35778;BME280;21899;42.662;23.316;2022-07-01T05:16:05;94551.38;;;24.53;57.17
35778;BME280;21899;42.662;23.316;2022-07-01T05:18:31;94554.75;;;24.86;56.15
35778;BME280;21899;42.662;23.316;2022-07-01T05:21:15;94550.09;;;24.77;56.30
35778;BME280;21899;42.662;23.316;2022-07-01T05:24:18;94543.19;;;25.25;55.06
35778;BME280;21899;42.662;23.316;2022-07-01T05:26:43;94548.06;;;25.65;53.61
35778;BME280;21899;42.662;23.316;2022-07-01T05:29:09;94547.84;;;25.68;53.53
35778;BME280;21899;42.662;23.316;2022-07-01T05:31:34;94553.28;;;25.34;54.86
35778;BME280;21899;42.662;23.316;2022-07-01T05:33:59;94551.28;;;25.34;54.64
35778;BME280;21899;42.662;23.316;2022-07-01T05:36:25;94551.78;;;25.33;55.22
35778;BME280;21899;42.662;23.316;2022-07-01T05:38:51;94560.00;;;25.47;54.83
35778;BME280;21899;42.662;23.316;2022-07-01T05:41:16;94544.72;;;25.96;53.81
35778;BME280;21899;42.662;23.316;2022-07-01T05:43:42;94552.22;;;26.15;53.39
35778;BME280;21899;42.662;23.316;2022-07-01T05:46:07;94541.44;;;26.52;52.31
35778;BME280;21899;42.662;23.316;2022-07-01T05:48:32;94542.88;;;26.93;50.00
35778;BME280;21899;42.662;23.316;2022-07-01T05:50:58;94544.44;;;27.00;49.58
35778;BME280;21899;42.662;23.316;2022-07-01T05:53:23;94544.50;;;27.11;49.09
35778;BME280;21899;42.662;23.316;2022-07-01T05:55:48;94546.41;;;26.99;48.56
35778;BME280;21899;42.662;23.316;2022-07-01T05:58:14;94547.50;;;27.07;49.45
35778;BME280;21899;42.662;23.316;2022-07-01T06:00:39;94554.94;;;27.01;49.00
35778;BME280;21899;42.662;23.316;2022-07-01T06:03:11;94556.78;;;26.84;49.44
35778;BME280;21899;42.662;23.316;2022-07-01T06:05:37;94557.78;;;26.41;50.45
35778;BME280;21899;42.662;23.316;2022-07-01T06:08:03;94552.03;;;26.19;52.23
35778;BME280;21899;42.662;23.316;2022-07-01T06:10:28;94557.94;;;25.97;52.25
35778;BME280;21899;42.662;23.316;2022-07-01T06:12:54;94556.78;;;25.84;51.70
35778;BME280;21899;42.662;23.316;2022-07-01T06:15:19;94544.91;;;25.92;52.56
35778;BME280;21899;42.662;23.316;2022-07-01T06:17:44;94556.25;;;26.00;51.52
35778;BME280;21899;42.662;23.316;2022-07-01T06:20:10;94551.75;;;26.37;50.68
35778;BME280;21899;42.662;23.316;2022-07-01T06:22:35;94563.84;;;25.90;52.54
35778;BME280;21899;42.662;23.316;2022-07-01T06:25:01;94561.75;;;26.00;51.79
35778;BME280;21899;42.662;23.316;2022-07-01T06:27:26;94568.44;;;25.99;51.70
35778;BME280;21899;42.662;23.316;2022-07-01T06:29:52;94566.78;;;25.66;52.19
35778;BME280;21899;42.662;23.316;2022-07-01T06:32:17;94565.91;;;25.95;51.73
35778;BME280;21899;42.662;23.316;2022-07-01T06:34:43;94554.69;;;26.13;51.41
35778;BME280;21899;42.662;23.316;2022-07-01T06:37:08;94557.09;;;26.06;51.02
35778;BME280;21899;42.662;23.316;2022-07-01T06:39:33;94555.16;;;26.32;50.42
35778;BME280;21899;42.662;23.316;2022-07-01T06:41:59;94553.72;;;26.36;50.96
35778;BME280;21899;42.662;23.316;2022-07-01T06:44:24;94559.34;;;26.47;50.81
35778;BME280;21899;42.662;23.316;2022-07-01T06:46:49;94560.09;;;26.48;51.23
35778;BME280;21899;42.662;23.316;2022-07-01T06:49:15;94556.94;;;26.15;51.55
35778;BME280;21899;42.662;23.316;2022-07-01T06:51:40;94557.91;;;26.12;51.37
35778;BME280;21899;42.662;23.316;2022-07-01T06:54:06;94558.47;;;26.16;51.69
35778;BME280;21899;42.662;23.316;2022-07-01T06:56:31;94559.56;;;26.24;51.86
35778;BME280;21899;42.662;23.316;2022-07-01T06:58:56;94561.75;;;26.40;51.57
35778;BME280;21899;42.662;23.316;2022-07-01T07:01:22;94561.75;;;26.40;51.34
35778;BME280;21899;42.662;23.316;2022-07-01T07:03:47;94555.84;;;26.47;52.19
35778;BME280;21899;42.662;23.316;2022-07-01T07:06:12;94561.22;;;26.36;52.41
35778;BME280;21899;42.662;23.316;2022-07-01T07:08:38;94553.50;;;26.00;53.22
35778;BME280;21899;42.662;23.316;2022-07-01T07:11:03;94554.34;;;26.06;52.50
35778;BME280;21899;42.662;23.316;2022-07-01T07:13:29;94561.09;;;26.05;52.90
35778;BME280;21899;42.662;23.316;2022-07-01T07:15:54;94554.28;;;26.20;52.95
35778;BME280;21899;42.662;23.316;2022-07-01T07:18:20;94555.81;;;26.21;52.47
35778;BME280;21899;42.662;23.316;2022-07-01T07:20:45;94557.56;;;26.44;51.74
35778;BME280;21899;42.662;23.316;2022-07-01T07:23:12;94555.22;;;26.57;51.76
35778;BME280;21899;42.662;23.316;2022-07-01T07:25:38;94560.53;;;26.21;52.34
35778;BME280;21899;42.662;23.316;2022-07-01T07:28:03;94565.34;;;26.46;51.88
35778;BME280;21899;42.662;23.316;2022-07-01T07:30:28;94558.31;;;26.45;51.86
35778;BME280;21899;42.662;23.316;2022-07-01T07:32:54;94558.97;;;26.60;52.23
35778;BME280;21899;42.662;23.316;2022-07-01T07:35:19;94561.34;;;26.67;52.03
35778;BME280;21899;42.662;23.316;2022-07-01T07:37:44;94556.72;;;26.58;52.30
35778;BME280;21899;42.662;23.316;2022-07-01T07:40:11;94560.66;;;26.72;52.74
35778;BME280;21899;42.662;23.316;2022-07-01T07:42:37;94555.91;;;26.72;51.92
35778;BME280;21899;42.662;23.316;2022-07-01T07:45:03;94548.38;;;26.67;52.82
35778;BME280;21899;42.662;23.316;2022-07-01T07:47:29;94561.72;;;26.80;52.14
35778;BME280;21899;42.662;23.316;2022-07-01T07:49:54;94559.00;;;27.11;51.89
35778;BME280;21899;42.662;23.316;2022-07-01T07:52:19;94557.28;;;27.39;50.60
35778;BME280;21899;42.662;23.316;2022-07-01T07:54:45;94549.91;;;27.56;50.17
35778;BME280;21899;42.662;23.316;2022-07-01T07:57:10;94558.06;;;27.82;49.67
35778;BME280;21899;42.662;23.316;2022-07-01T07:59:35;94553.22;;;28.02;49.22
35778;BME280;21899;42.662;23.316;2022-07-01T08:02:01;94549.81;;;28.24;47.46
35778;BME280;21899;42.662;23.316;2022-07-01T08:04:26;94557.38;;;28.40;47.54
35778;BME280;21899;42.662;23.316;2022-07-01T08:06:51;94553.97;;;28.51;46.32
35778;BME280;21899;42.662;23.316;2022-07-01T08:09:17;94542.47;;;28.63;46.94
35778;BME280;21899;42.662;23.316;2022-07-01T08:11:43;94543.97;;;28.70;45.98
35778;BME280;21899;42.662;23.316;2022-07-01T08:14:08;94547.25;;;28.79;46.58
35778;BME280;21899;42.662;23.316;2022-07-01T08:16:34;94544.28;;;28.88;45.38
35778;BME280;21899;42.662;23.316;2022-07-01T08:19:00;94534.97;;;28.86;45.09
35778;BME280;21899;42.662;23.316;2022-07-01T08:21:25;94538.75;;;28.88;45.13
35778;BME280;21899;42.662;23.316;2022-07-01T08:23:50;94535.75;;;28.92;45.30
35778;BME280;21899;42.662;23.316;2022-07-01T08:26:16;94530.75;;;28.90;45.29
35778;BME280;21899;42.662;23.316;2022-07-01T08:28:42;94532.75;;;28.90;45.62
35778;BME280;21899;42.662;23.316;2022-07-01T08:31:08;94535.25;;;28.93;45.08
35778;BME280;21899;42.662;23.316;2022-07-01T08:33:33;94530.47;;;28.83;45.45
35778;BME280;21899;42.662;23.316;2022-07-01T08:35:59;94526.00;;;28.85;45.40
35778;BME280;21899;42.662;23.316;2022-07-01T08:38:24;94533.97;;;28.78;42.67
35778;BME280;21899;42.662;23.316;2022-07-01T08:40:49;94539.00;;;28.74;43.11
35778;BME280;21899;42.662;23.316;2022-07-01T08:43:15;94536.47;;;28.59;43.71
35778;BME280;21899;42.662;23.316;2022-07-01T08:45:40;94537.44;;;28.62;43.47
35778;BME280;21899;42.662;23.316;2022-07-01T08:48:06;94533.69;;;28.54;42.71
35778;BME280;21899;42.662;23.316;2022-07-01T08:50:40;94538.56;;;28.33;43.69
35778;BME280;21899;42.662;23.316;2022-07-01T08:53:06;94536.13;;;28.46;43.86
35778;BME280;21899;42.662;23.316;2022-07-01T08:55:32;94529.34;;;28.42;44.49
35778;BME280;21899;42.662;23.316;2022-07-01T08:58:17;94530.81;;;28.32;43.56
35778;BME280;21899;42.662;23.316;2022-07-01T09:00:43;94526.03;;;28.21;44.66
35778;BME280;21899;42.662;23.316;2022-07-01T09:03:08;94529.59;;;28.33;42.98
35778;BME280;21899;42.662;23.316;2022-07-01T09:05:33;94531.38;;;28.47;42.57
35778;BME280;21899;42.662;23.316;2022-07-01T09:08:01;94538.66;;;28.50;42.16
35778;BME280;21899;42.662;23.316;2022-07-01T09:10:27;94533.13;;;28.44;43.16
35778;BME280;21899;42.662;23.316;2022-07-01T09:12:56;94533.31;;;28.30;42.70
35778;BME280;21899;42.662;23.316;2022-07-01T09:15:23;94530.94;;;28.54;43.05
35778;BME280;21899;42.662;23.316;2022-07-01T09:17:52;94532.19;;;28.53;42.49
35778;BME280;21899;42.662;23.316;2022-07-01T09:20:25;94532.41;;;28.55;40.87
35778;BME280;21899;42.662;23.316;2022-07-01T09:22:57;94530.16;;;28.53;40.04
35778;BME280;21899;42.662;23.316;2022-07-01T09:25:26;94535.97;;;28.61;39.76
35778;BME280;21899;42.662;23.316;2022-07-01T09:28:02;94534.97;;;28.86;39.64
35778;BME280;21899;42.662;23.316;2022-07-01T09:30:28;94533.53;;;29.07;39.84
35778;BME280;21899;42.662;23.316;2022-07-01T09:35:39;94530.28;;;29.53;39.49
35778;BME280;21899;42.662;23.316;2022-07-01T09:38:05;94517.72;;;29.63;38.06
35778;BME280;21899;42.662;23.316;2022-07-01T09:43:18;94525.53;;;29.53;36.75
35778;BME280;21899;42.662;23.316;2022-07-01T09:48:15;94514.25;;;29.57;34.86
35778;BME280;21899;42.662;23.316;2022-07-01T09:50:40;94517.00;;;29.68;35.89
35778;BME280;21899;42.662;23.316;2022-07-01T09:53:06;94508.19;;;29.86;36.36
35778;BME280;21899;42.662;23.316;2022-07-01T09:55:31;94505.38;;;30.02;36.71
35778;BME280;21899;42.662;23.316;2022-07-01T09:57:58;94503.31;;;30.19;34.66
35778;BME280;21899;42.662;23.316;2022-07-01T10:00:24;94507.59;;;30.09;31.96
35778;BME280;21899;42.662;23.316;2022-07-01T10:02:50;94506.09;;;30.08;32.72
35778;BME280;21899;42.662;23.316;2022-07-01T10:05:17;94505.81;;;30.17;31.83
35778;BME280;21899;42.662;23.316;2022-07-01T10:07:50;94505.88;;;30.01;32.38
35778;BME280;21899;42.662;23.316;2022-07-01T10:12:43;94500.34;;;30.06;31.85
35778;BME280;21899;42.662;23.316;2022-07-01T10:15:09;94504.56;;;30.24;31.79
35778;BME280;21899;42.662;23.316;2022-07-01T10:17:36;94499.25;;;30.31;31.55
35778;BME280;21899;42.662;23.316;2022-07-01T10:20:06;94490.69;;;30.35;29.77
35778;BME280;21899;42.662;23.316;2022-07-01T10:22:34;94490.44;;;30.33;28.51
35778;BME280;21899;42.662;23.316;2022-07-01T10:27:44;94486.72;;;30.30;27.30
35778;BME280;21899;42.662;23.316;2022-07-01T10:30:13;94494.50;;;30.26;27.53
35778;BME280;21899;42.662;23.316;2022-07-01T10:32:48;94484.19;;;30.21;28.73
35778;BME280;21899;42.662;23.316;2022-07-01T10:35:16;94479.72;;;30.24;29.35
35778;BME280;21899;42.662;23.316;2022-07-01T10:37:57;94476.88;;;30.35;29.18
35778;BME280;21899;42.662;23.316;2022-07-01T10:43:06;94473.16;;;30.32;29.29
35778;BME280;21899;42.662;23.316;2022-07-01T10:45:42;94463.13;;;30.29;27.15
35778;BME280;21899;42.662;23.316;2022-07-01T10:48:17;94463.31;;;30.42;25.74
35778;BME280;21899;42.662;23.316;2022-07-01T10:50:45;94466.47;;;30.57;24.26
35778;BME280;21899;42.662;23.316;2022-07-01T10:53:10;94459.06;;;30.77;23.82
35778;BME280;21899;42.662;23.316;2022-07-01T10:55:36;94452.50;;;30.85;24.67
35778;BME280;21899;42.662;23.316;2022-07-01T10:58:02;94457.56;;;31.11;25.40
35778;BME280;21899;42.662;23.316;2022-07-01T11:00:28;94458.16;;;31.28;25.46
35778;BME280;21899;42.662;23.316;2022-07-01T11:03:04;94467.44;;;31.36;24.18
35778;BME280;21899;42.662;23.316;2022-07-01T11:05:29;94465.59;;;31.44;24.05
35778;BME280;21899;42.662;23.316;2022-07-01T11:07:55;94463.25;;;31.53;24.32
35778;BME280;21899;42.662;23.316;2022-07-01T11:10:21;94460.28;;;31.46;24.35
35778;BME280;21899;42.662;23.316;2022-07-01T11:12:46;94448.59;;;31.58;24.32
35778;BME280;21899;42.662;23.316;2022-07-01T11:15:14;94452.91;;;31.54;24.54
35778;BME280;21899;42.662;23.316;2022-07-01T11:17:44;94456.59;;;31.62;25.48
35778;BME280;21899;42.662;23.316;2022-07-01T11:20:10;94449.91;;;31.76;24.89
35778;BME280;21899;42.662;23.316;2022-07-01T11:22:35;94455.28;;;31.68;24.74
35778;BME280;21899;42.662;23.316;2022-07-01T11:25:08;94450.63;;;31.58;23.88
35778;BME280;21899;42.662;23.316;2022-07-01T11:27:33;94450.06;;;31.65;24.23
35778;BME280;21899;42.662;23.316;2022-07-01T11:30:08;94450.50;;;31.69;24.33
35778;BME280;21899;42.662;23.316;2022-07-01T11:32:37;94442.91;;;31.75;22.54
35778;BME280;21899;42.662;23.316;2022-07-01T11:35:04;94446.00;;;31.90;22.34
35778;BME280;21899;42.662;23.316;2022-07-01T11:37:50;94442.28;;;31.88;23.26
35778;BME280;21899;42.662;23.316;2022-07-01T11:40:33;94446.09;;;31.79;23.69
35778;BME280;21899;42.662;23.316;2022-07-01T11:42:59;94440.03;;;31.86;23.85
35778;BME280;21899;42.662;23.316;2022-07-01T11:45:25;94436.06;;;31.76;24.04
35778;BME280;21899;42.662;23.316;2022-07-01T11:47:50;94437.03;;;31.60;24.50
35778;BME280;21899;42.662;23.316;2022-07-01T11:50:16;94438.97;;;31.65;24.38
35778;BME280;21899;42.662;23.316;2022-07-01T11:52:41;94429.50;;;31.79;26.39
35778;BME280;21899;42.662;23.316;2022-07-01T11:55:07;94424.38;;;31.89;25.31
35778;BME280;21899;42.662;23.316;2022-07-01T11:57:32;94420.06;;;31.93;24.42
35778;BME280;21899;42.662;23.316;2022-07-01T12:00:06;94418.25;;;31.96;25.07
35778;BME280;21899;42.662;23.316;2022-07-01T12:02:32;94424.78;;;31.98;23.61
35778;BME280;21899;42.662;23.316;2022-07-01T12:04:59;94424.25;;;32.18;23.05
35778;BME280;21899;42.662;23.316;2022-07-01T12:07:24;94409.91;;;32.38;23.56
35778;BME280;21899;42.662;23.316;2022-07-01T12:09:50;94415.13;;;32.60;23.86
35778;BME280;21899;42.662;23.316;2022-07-01T12:12:17;94417.50;;;32.69;24.22
35778;BME280;21899;42.662;23.316;2022-07-01T12:14:48;94413.78;;;32.48;24.24
35778;BME280;21899;42.662;23.316;2022-07-01T12:17:14;94412.75;;;32.33;22.81
35778;BME280;21899;42.662;23.316;2022-07-01T12:19:41;94412.75;;;32.33;23.01
35778;BME280;21899;42.662;23.316;2022-07-01T12:22:25;94403.16;;;32.52;23.51
35778;BME280;21899;42.662;23.316;2022-07-01T12:24:52;94408.06;;;32.78;23.61
35778;BME280;21899;42.662;23.316;2022-07-01T12:27:20;94411.78;;;32.99;23.02
35778;BME280;21899;42.662;23.316;2022-07-01T12:32:11;94409.13;;;32.56;22.28
35778;BME280;21899;42.662;23.316;2022-07-01T12:37:09;94405.25;;;32.65;23.79
35778;BME280;21899;42.662;23.316;2022-07-01T12:42:36;94401.25;;;32.79;23.70
35778;BME280;21899;42.662;23.316;2022-07-01T12:45:07;94396.38;;;32.66;23.88
35778;BME280;21899;42.662;23.316;2022-07-01T12:52:35;94393.44;;;32.46;25.35
35778;BME280;21899;42.662;23.316;2022-07-01T12:55:11;94388.06;;;32.66;24.47
35778;BME280;21899;42.662;23.316;2022-07-01T12:57:37;94391.72;;;32.93;23.87
35778;BME280;21899;42.662;23.316;2022-07-01T13:00:02;94399.94;;;32.98;23.60
35778;BME280;21899;42.662;23.316;2022-07-01T13:02:28;94387.28;;;33.16;23.19
35778;BME280;21899;42.662;23.316;2022-07-01T13:04:53;94399.28;;;32.92;23.49
35778;BME280;21899;42.662;23.316;2022-07-01T13:07:18;94392.19;;;32.78;28.50
35778;BME280;21899;42.662;23.316;2022-07-01T13:09:43;94396.28;;;32.40;31.48
35778;BME280;21899;42.662;23.316;2022-07-01T13:12:09;94390.66;;;32.27;32.41
35778;BME280;21899;42.662;23.316;2022-07-01T13:14:34;94381.75;;;32.34;31.21
35778;BME280;21899;42.662;23.316;2022-07-01T13:16:59;94392.47;;;32.06;33.24